Octubre 2004

Fecha / Hora Temperatura (*F) Dew Point (*F) Humedad Relativa (%)
10/1/2004 0:25 55.97 50.5 81.8
10/1/2004 0:55 55.28 49.82 81.8
10/1/2004 1:25 55.28 49.82 81.8
10/1/2004 1:55 54.58 49.14 81.8
10/1/2004 2:25 54.58 49.14 81.8
10/1/2004 2:55 53.19 47.62 81.3
10/1/2004 3:25 52.49 47.38 82.7
10/1/2004 3:55 52.49 47.84 84.1
10/1/2004 4:25 51.79 46.98 83.6
10/1/2004 4:55 51.08 46.46 84.1
10/1/2004 5:25 51.08 46.74 85
10/1/2004 5:55 51.08 47.26 86.7
10/1/2004 6:25 51.08 47.02 85.9
10/1/2004 6:55 55.97 49.7 79.4
10/1/2004 7:25 60.11 50.58 70.7
10/1/2004 7:55 62.17 51.34 67.6
10/1/2004 8:25 62.17 49.9 64.1
10/1/2004 8:55 63.54 49.86 61
10/1/2004 9:25 66.28 49.5 54.7
10/1/2004 9:55 68.33 49.32 50.6
10/1/2004 10:25 70.39 47.7 44.4
10/1/2004 10:55 73.15 46.94 39.3
10/1/2004 11:25 76.62 46.02 33.8
10/1/2004 11:55 76.62 45.62 33.3
10/1/2004 12:25 80.12 41.86 25.7
10/1/2004 12:55 80.82 37.64 21.3
10/1/2004 13:25 83.67 30.5 14.6
10/1/2004 13:55 82.24 37.22 20
10/1/2004 14:25 81.53 37.62 20.8
10/1/2004 14:55 82.24 39.28 21.7
10/1/2004 15:25 84.38 46.48 26.7
10/1/2004 15:55 79.41 48.86 34.3
10/1/2004 16:25 76.62 49.68 38.8
10/1/2004 16:55 74.53 49.82 41.8
10/1/2004 17:25 72.46 51.1 47
10/1/2004 17:55 70.39 51.48 51.1
10/1/2004 18:25 69.02 52.04 54.7
10/1/2004 18:55 67.65 52.3 57.9
10/1/2004 19:25 66.28 52.44 61
10/1/2004 19:55 64.91 52.5 64.1
10/1/2004 20:25 64.22 51.84 64.1
10/1/2004 20:55 63.54 52.24 66.6
10/1/2004 21:25 62.85 51.78 67.1
10/1/2004 21:55 61.48 51.46 69.6
10/1/2004 22:25 60.8 51 70.1
10/1/2004 22:55 60.11 50.58 70.7
10/1/2004 23:25 59.42 49.5 69.6
10/1/2004 23:55 58.73 49.02 70.1
10/2/2004 0:25 58.73 50.52 74.1
10/2/2004 0:55 57.35 49.18 74.1
10/2/2004 1:25 55.97 48.02 74.6
10/2/2004 1:55 55.28 47.36 74.6
10/2/2004 2:25 55.97 47.86 74.1
10/2/2004 2:55 55.97 46.6 70.7
10/2/2004 3:25 54.58 45.28 70.7
10/2/2004 3:55 55.28 43.58 64.6
10/2/2004 4:25 54.58 42.46 63.5
10/2/2004 4:55 53.19 41.78 65.1
10/2/2004 5:25 53.19 41.58 64.6
10/2/2004 5:55 54.58 40.96 59.9
10/2/2004 6:25 53.89 40.52 60.4
10/2/2004 6:55 60.8 41.28 48.5
10/2/2004 7:25 65.59 40.2 39.3
10/2/2004 7:55 72.46 41.28 32.4
10/2/2004 8:25 71.77 40.28 31.9
10/2/2004 8:55 73.84 40.84 30.4
10/2/2004 9:25 75.92 40.6 28.1
10/2/2004 9:55 78.01 40.08 25.7
10/2/2004 10:25 80.82 37.64 21.3
10/2/2004 10:55 80.82 39.6 23
10/2/2004 11:25 82.24 38.2 20.8
10/2/2004 11:55 82.95 38.3 20.4
10/2/2004 12:25 84.38 37.26 18.7
10/2/2004 12:55 85.83 37.88 18.3
10/2/2004 13:25 85.83 40.14 20
10/2/2004 13:55 87.28 41.84 20.4
10/2/2004 14:25 85.1 44.16 23.9
10/2/2004 14:55 84.38 43.12 23.5
10/2/2004 15:25 83.67 43.94 24.8
10/2/2004 15:55 82.95 43.32 24.8
10/2/2004 16:25 80.82 44.32 27.6
10/2/2004 16:55 78.71 44.26 29.5
10/2/2004 17:25 76.62 44.5 31.9
10/2/2004 17:55 75.22 45.56 34.8
10/2/2004 18:25 73.15 45.9 37.8
10/2/2004 18:55 72.46 46.98 40.3
10/2/2004 19:25 71.08 47.04 42.3
10/2/2004 19:55 69.71 46.78 43.9
10/2/2004 20:25 69.02 47.34 45.9
10/2/2004 20:55 68.33 47.34 47
10/2/2004 21:25 66.96 46.66 48
10/2/2004 21:55 66.28 46.56 49
10/2/2004 22:25 64.91 45.58 49.5
10/2/2004 22:55 64.22 45.54 50.6
10/2/2004 23:25 63.54 45.16 51.1
10/2/2004 23:55 62.85 45.04 52.1
10/3/2004 0:25 62.17 44.7 52.7
10/3/2004 0:55 61.48 45.04 54.7
10/3/2004 1:25 60.8 44.7 55.3
10/3/2004 1:55 61.48 45.56 55.8
10/3/2004 2:25 60.8 45.16 56.3
10/3/2004 2:55 59.42 44.62 57.9
10/3/2004 3:25 59.42 44.34 57.3
10/3/2004 3:55 59.42 44.12 56.8
10/3/2004 4:25 58.04 43.32 57.9
10/3/2004 4:55 58.04 43.54 58.4
10/3/2004 5:25 58.04 43.06 57.3
10/3/2004 5:55 56.66 43.38 61
10/3/2004 6:25 57.35 43.78 60.4
10/3/2004 6:55 64.22 46.04 51.6
10/3/2004 7:25 69.02 45.56 42.9
10/3/2004 7:55 74.53 46.42 36.8
10/3/2004 8:25 74.53 44.96 34.8
10/3/2004 8:55 76.62 43.24 30.4
10/3/2004 9:25 78.71 38.82 23.9
10/3/2004 9:55 80.82 35.4 19.5
10/3/2004 10:25 82.95 30.6 15
10/3/2004 10:55 87.28 24.62 10.2
10/3/2004 11:25 88.01 25.86 10.5
10/3/2004 11:55 87.28 32.84 14.3
10/3/2004 12:25 89.48 30.22 12
10/3/2004 12:55 91.71 34.12 13.1
10/3/2004 13:25 90.22 35.68 14.6
10/3/2004 13:55 88.74 38.36 17
10/3/2004 14:25 88.74 39.68 17.9
10/3/2004 14:55 87.28 38.5 17.9
10/3/2004 15:25 85.83 38.96 19.1
10/3/2004 15:55 85.1 38.9 19.5
10/3/2004 16:25 83.67 37.2 19.1
10/3/2004 16:55 82.24 37.22 20
10/3/2004 17:25 80.12 38 22.1
10/3/2004 17:55 78.71 37.84 23
10/3/2004 18:25 77.31 39.1 25.3
10/3/2004 18:55 75.92 48.72 38.3
10/3/2004 19:25 73.84 48.56 40.8
10/3/2004 19:55 71.77 47.66 42.3
10/3/2004 20:25 71.08 48.02 43.9
10/3/2004 20:55 69.71 46.78 43.9
10/3/2004 21:25 69.02 46.16 43.9
10/3/2004 21:55 67.65 44.92 43.9
10/3/2004 22:25 66.28 44.84 45.9
10/3/2004 22:55 64.91 44.5 47.5
10/3/2004 23:25 64.91 44.78 48
10/3/2004 23:55 64.22 44.14 48
10/4/2004 0:25 62.85 42.9 48
10/4/2004 0:55 61.48 41.9 48.5
10/4/2004 1:25 62.17 39.02 42.3
10/4/2004 1:55 61.48 38.4 42.3
10/4/2004 2:25 60.8 39 44.4
10/4/2004 2:55 60.8 37.78 42.3
10/4/2004 3:25 60.11 37.16 42.3
10/4/2004 3:55 59.42 36.9 42.9
10/4/2004 4:25 59.42 36.9 42.9
10/4/2004 4:55 59.42 36.54 42.3
10/4/2004 5:25 59.42 36.54 42.3
10/4/2004 5:55 59.42 36.24 41.8
10/4/2004 6:25 58.73 36.56 43.4
10/4/2004 6:55 65.59 38.86 37.3
10/4/2004 7:25 70.39 37.52 30
10/4/2004 7:55 76.62 37.06 23.9
10/4/2004 8:25 77.31 36.66 23
10/4/2004 8:55 80.12 36.46 20.8
10/4/2004 9:25 82.24 29.38 14.6
10/4/2004 9:55 83.67 29.3 13.9
10/4/2004 10:25 85.83 31.7 14.3
10/4/2004 10:55 87.28 23.66 9.8
10/4/2004 11:25 88.74 23 9.1
10/4/2004 11:55 90.22 20.46 7.8
10/4/2004 12:25 90.96 27.4 10.2
10/4/2004 12:55 90.96 35.74 14.3
10/4/2004 13:25 91.71 36.32 14.3
10/4/2004 13:55 91.71 34.88 13.5
10/4/2004 14:25 90.22 37.68 15.8
10/4/2004 14:55 90.22 37.68 15.8
10/4/2004 15:25 88.01 40.2 18.7
10/4/2004 15:55 87.28 41.34 20
10/4/2004 16:25 85.1 42.72 22.6
10/4/2004 16:55 82.95 44.26 25.7
10/4/2004 17:25 80.12 42.36 26.2
10/4/2004 17:55 78.01 44.86 30.9
10/4/2004 18:25 75.92 45.8 34.3
10/4/2004 18:55 74.53 46.78 37.3
10/4/2004 19:25 72.46 46.98 40.3
10/4/2004 19:55 71.77 46.7 40.8
10/4/2004 20:25 70.39 46.1 41.8
10/4/2004 20:55 68.33 45.84 44.4
10/4/2004 21:25 67.65 47 47.5
10/4/2004 21:55 66.28 45.14 46.4
10/4/2004 22:25 65.59 45.4 48
10/4/2004 22:55 64.22 44.96 49.5
10/4/2004 23:25 63.54 44.64 50.1
10/4/2004 23:55 62.17 44.16 51.6
10/5/2004 0:25 62.17 44.4 52.1
10/5/2004 0:55 60.8 43.68 53.2
10/5/2004 1:25 60.11 43.04 53.2
10/5/2004 1:55 59.42 43.64 55.8
10/5/2004 2:25 59.42 44.34 57.3
10/5/2004 2:55 58.73 43.7 57.3
10/5/2004 3:25 58.04 44 59.4
10/5/2004 3:55 57.35 44.26 61.5
10/5/2004 4:25 56.66 44.02 62.5
10/5/2004 4:55 55.97 44.24 64.6
10/5/2004 5:25 55.28 43.36 64.1
10/5/2004 5:55 55.97 44.44 65.1
10/5/2004 6:25 55.97 44.02 64.1
10/5/2004 6:55 62.17 45.2 53.7
10/5/2004 7:25 65.59 44.22 45.9
10/5/2004 7:55 72.46 44.94 37.3
10/5/2004 8:25 73.15 42.98 33.8
10/5/2004 8:55 74.53 43.8 33.3
10/5/2004 9:25 76.62 42.88 30
10/5/2004 9:55 79.41 41.26 25.7
10/5/2004 10:25 82.95 39.88 21.7
10/5/2004 10:55 85.83 36.74 17.5
10/5/2004 11:25 88.01 23.48 9.5
10/5/2004 11:55 88.74 24.76 9.8
10/5/2004 12:25 89.48 26.98 10.5
10/5/2004 12:55 90.22 26.84 10.2
10/5/2004 13:25 89.48 25.32 9.8
10/5/2004 13:55 90.22 25.88 9.8
10/5/2004 14:25 89.48 28.76 11.3
10/5/2004 14:55 90.22 29.96 11.6
10/5/2004 15:25 88.01 49.04 26.2
10/5/2004 15:55 86.55 50.06 28.5
10/5/2004 16:25 84.38 50.38 30.9
10/5/2004 16:55 82.24 50.2 32.9
10/5/2004 17:25 80.12 51 36.3
10/5/2004 17:55 78.01 50.58 38.3
10/5/2004 18:25 76.62 51.36 41.3
10/5/2004 18:55 75.22 50.76 42.3
10/5/2004 19:25 73.84 50.2 43.4
10/5/2004 19:55 72.46 50.16 45.4
10/5/2004 20:25 71.77 50.48 47
10/5/2004 20:55 70.39 49.78 48
10/5/2004 21:25 69.02 48.54 48
10/5/2004 21:55 69.71 48.88 47.5
10/5/2004 22:25 68.33 48.18 48.5
10/5/2004 22:55 66.96 48.32 51.1
10/5/2004 23:25 65.59 48.12 53.2
10/5/2004 23:55 64.91 47.48 53.2
10/6/2004 0:25 64.22 46.3 52.1
10/6/2004 0:55 63.54 44.32 49.5
10/6/2004 1:25 62.85 42.9 48
10/6/2004 1:55 62.85 40.58 43.9
10/6/2004 2:25 62.17 36.48 38.3
10/6/2004 2:55 62.17 37.14 39.3
10/6/2004 3:25 60.8 36.24 39.8
10/6/2004 3:55 60.11 34.98 38.8
10/6/2004 4:25 60.11 34.32 37.8
10/6/2004 4:55 59.42 34.68 39.3
10/6/2004 5:25 59.42 33.72 37.8
10/6/2004 5:55 59.42 33.72 37.8
10/6/2004 6:25 59.42 35 39.8
10/6/2004 6:55 65.59 35.68 32.9
10/6/2004 7:25 70.39 34.96 27.1
10/6/2004 7:55 75.92 37.92 25.3
10/6/2004 8:25 76.62 34.62 21.7
10/6/2004 8:55 80.12 32.14 17.5
10/6/2004 9:25 84.38 28.42 13.1
10/6/2004 9:55 86.55 25.64 10.9
10/6/2004 10:25 88.01 25.16 10.2
10/6/2004 10:55 88.01 25.86 10.5
10/6/2004 11:25 89.48 25.32 9.8
10/6/2004 11:55 89.48 24.58 9.5
10/6/2004 12:25 90.22 24.1 9.1
10/6/2004 12:55 90.96 23.04 8.5
10/6/2004 13:25 90.96 21.9 8.1
10/6/2004 13:55 90.22 21.34 8.1
10/6/2004 14:25 90.22 23.3 8.8
10/6/2004 14:55 89.48 23.54 9.1
10/6/2004 15:25 88.74 24.02 9.5
10/6/2004 15:55 88.01 23.48 9.5
10/6/2004 16:25 86.55 22.38 9.5
10/6/2004 16:55 85.1 21.28 9.5
10/6/2004 17:25 83.67 20.94 9.8
10/6/2004 17:55 81.53 24.88 12.4
10/6/2004 18:25 79.41 40.86 25.3
10/6/2004 18:55 77.31 41.78 28.1
10/6/2004 19:25 75.92 40.14 27.6
10/6/2004 19:55 75.22 41.68 30
10/6/2004 20:25 73.15 40.24 30.4
10/6/2004 20:55 71.77 41.08 32.9
10/6/2004 21:25 71.08 40.48 32.9
10/6/2004 21:55 70.39 39.08 31.9
10/6/2004 22:25 69.71 38.08 31.4
10/6/2004 22:55 69.02 33.78 27.1
10/6/2004 23:25 68.33 31 24.8
10/6/2004 23:55 66.96 31.2 26.2
10/7/2004 0:25 66.96 31.2 26.2
10/7/2004 0:55 65.59 30.02 26.2
10/7/2004 1:25 65.59 28.68 24.8
10/7/2004 1:55 64.91 28.6 25.3
10/7/2004 2:25 64.22 28.4 25.7
10/7/2004 2:55 63.54 28.28 26.2
10/7/2004 3:25 64.22 28.86 26.2
10/7/2004 3:55 62.85 28.52 27.1
10/7/2004 4:25 63.54 29.1 27.1
10/7/2004 4:55 62.17 28.36 27.6
10/7/2004 5:25 62.17 29.16 28.5
10/7/2004 5:55 61.48 28.56 28.5
10/7/2004 6:25 60.8 28.4 29
10/7/2004 6:55 66.28 28.86 24.4
10/7/2004 7:25 71.77 29.08 20.4
10/7/2004 7:55 79.41 27.8 15
10/7/2004 8:25 82.24 27.48 13.5
10/7/2004 8:55 84.38 25.48 11.6
10/7/2004 9:25 86.55 26.52 11.3
10/7/2004 9:55 88.01 25.86 10.5
10/7/2004 10:25 89.48 23.54 9.1
10/7/2004 10:55 89.48 23.54 9.1
10/7/2004 11:25 90.22 23.3 8.8
10/7/2004 11:55 91.71 24.4 8.8
10/7/2004 12:25 90.96 25.68 9.5
10/7/2004 12:55 91.71 25.22 9.1
10/7/2004 13:25 92.46 23 8.1
10/7/2004 13:55 92.46 24.96 8.8
10/7/2004 14:25 91.71 23.58 8.5
10/7/2004 14:55 91.71 23.58 8.5
10/7/2004 15:25 90.96 23.86 8.8
10/7/2004 15:55 89.48 24.58 9.5
10/7/2004 16:25 88.01 24.2 9.8
10/7/2004 16:55 86.55 23.12 9.8
10/7/2004 17:25 85.83 23.52 10.2
10/7/2004 17:55 83.67 24.94 11.6
10/7/2004 18:25 82.24 24.64 12
10/7/2004 18:55 80.12 24.34 12.7
10/7/2004 19:25 79.41 25.26 13.5
10/7/2004 19:55 75.92 23.88 14.3
10/7/2004 20:25 75.22 23.32 14.3
10/7/2004 20:55 73.84 23.36 15
10/7/2004 21:25 73.15 22.82 15
10/7/2004 21:55 71.77 22.94 15.8
10/7/2004 22:25 71.77 23.54 16.2
10/7/2004 22:55 69.71 22.46 16.6
10/7/2004 23:25 69.02 22.46 17
10/7/2004 23:55 67.65 22.56 17.9
10/8/2004 0:25 68.33 23.12 17.9
10/8/2004 0:55 66.96 23.04 18.7
10/8/2004 1:25 66.28 22.98 19.1
10/8/2004 1:55 65.59 22.92 19.5
10/8/2004 2:25 65.59 21.92 18.7
10/8/2004 2:55 64.91 21.86 19.1
10/8/2004 3:25 63.54 21.82 20
10/8/2004 3:55 63.54 20.24 18.7
10/8/2004 4:25 64.22 19.78 17.9
10/8/2004 4:55 63.54 20.24 18.7
10/8/2004 5:25 62.85 21.24 20
10/8/2004 5:55 62.17 21.14 20.4
10/8/2004 6:25 62.17 22.16 21.3
10/8/2004 6:55 66.28 21.44 17.9
10/8/2004 7:25 75.22 23.82 14.6
10/8/2004 7:55 81.53 22.66 11.3
10/8/2004 8:25 85.1 21.28 9.5
10/8/2004 8:55 86.55 20.58 8.8
10/8/2004 9:25 88.01 21.66 8.8
10/8/2004 9:55 88.74 20.26 8.1
10/8/2004 10:25 89.48 20.8 8.1
10/8/2004 10:55 90.96 21.9 8.1
10/8/2004 11:25 92.46 24.14 8.5
10/8/2004 11:55 91.71 21.56 7.8
10/8/2004 12:25 91.71 21.56 7.8
10/8/2004 12:55 93.21 20.76 7.2
10/8/2004 13:25 93.97 18.92 6.5
10/8/2004 13:55 92.46 20.22 7.2
10/8/2004 14:25 94.73 18.38 6.2
10/8/2004 14:55 93.21 19.78 6.9
10/8/2004 15:25 92.46 19.22 6.9
10/8/2004 15:55 93.21 19.78 6.9
10/8/2004 16:25 90.96 18.14 6.9
10/8/2004 16:55 88.74 19.38 7.8
10/8/2004 17:25 87.28 22.92 9.5
10/8/2004 17:55 84.38 23.1 10.5
10/8/2004 18:25 82.95 25.98 12.4
10/8/2004 18:55 80.82 24.32 12.4
10/8/2004 19:25 79.41 24.54 13.1
10/8/2004 19:55 80.12 25.08 13.1
10/8/2004 20:25 80.12 25.08 13.1
10/8/2004 20:55 79.41 25.26 13.5
10/8/2004 21:25 75.92 25.02 15
10/8/2004 21:55 73.84 25.2 16.2
10/8/2004 22:25 72.46 24.68 16.6
10/8/2004 22:55 70.39 24.26 17.5
10/8/2004 23:25 69.71 24.24 17.9
10/8/2004 23:55 69.02 24.2 18.3
10/9/2004 0:25 68.33 24.66 19.1
10/9/2004 0:55 67.65 24.6 19.5
10/9/2004 1:25 66.96 24.64 20
10/9/2004 1:55 67.65 24.6 19.5
10/9/2004 2:25 64.91 23.88 20.8
10/9/2004 2:55 64.91 24.44 21.3
10/9/2004 3:25 65.59 25.02 21.3
10/9/2004 3:55 64.22 24.76 22.1
10/9/2004 4:25 64.22 25.28 22.6
10/9/2004 4:55 62.85 24.56 23
10/9/2004 5:25 62.85 22.74 21.3
10/9/2004 5:55 62.85 21.24 20
10/9/2004 6:25 63.54 21.22 19.5
10/9/2004 6:55 66.28 20.92 17.5
10/9/2004 7:25 73.15 22.18 14.6
10/9/2004 7:55 79.41 21.66 11.6
10/9/2004 8:25 81.53 19.32 9.8
10/9/2004 8:55 85.1 19.5 8.8
10/9/2004 9:25 87.28 17.4 7.5
10/9/2004 9:55 89.48 17.08 6.9
10/9/2004 10:25 90.96 18.14 6.9
10/9/2004 10:55 91.71 16.22 6.2
10/9/2004 11:25 93.97 16.68 5.9
10/9/2004 11:55 93.21 17.28 6.2
10/9/2004 12:25 94.73 20.86 6.9
10/9/2004 12:55 94.73 23.76 7.8
10/9/2004 13:25 94.73 22.84 7.5
10/9/2004 13:55 93.21 25.52 8.8
10/9/2004 14:25 92.46 30.14 10.9
10/9/2004 14:55 91.71 26.24 9.5
10/9/2004 15:25 91.71 26.24 9.5
10/9/2004 15:55 90.22 22.48 8.5
10/9/2004 16:25 88.74 23 9.1
10/9/2004 16:55 86.55 26.52 11.3
10/9/2004 17:25 82.95 31.26 15.4
10/9/2004 17:55 80.82 30.8 16.2
10/9/2004 18:25 78.01 42.38 28.1
10/9/2004 18:55 75.92 41.86 29.5
10/9/2004 19:25 74.53 41.86 30.9
10/9/2004 19:55 73.84 42.48 32.4
10/9/2004 20:25 71.77 42.52 34.8
10/9/2004 20:55 70.39 41.68 35.3
10/9/2004 21:25 69.71 42.16 36.8
10/9/2004 21:55 69.71 43.2 38.3
10/9/2004 22:25 68.33 42.98 39.8
10/9/2004 22:55 66.96 42.4 40.8
10/9/2004 23:25 65.59 42.76 43.4
10/9/2004 23:55 64.22 43.26 46.4
10/10/2004 0:25 64.22 44.96 49.5
10/10/2004 0:55 62.85 45.58 53.2
10/10/2004 1:25 61.48 45.8 56.3
10/10/2004 1:55 61.48 46.04 56.8
10/10/2004 2:25 60.8 46.12 58.4
10/10/2004 2:55 60.8 47.72 62
10/10/2004 3:25 60.11 49.96 69.1
10/10/2004 3:55 58.73 50.34 73.6
10/10/2004 4:25 58.04 51.4 78.5
10/10/2004 4:55 57.35 51.98 82.2
10/10/2004 5:25 56.66 51.46 82.7
10/10/2004 5:55 56.66 52.5 85.9
10/10/2004 6:25 55.28 52.7 91
10/10/2004 6:55 55.28 53.4 93.4
10/10/2004 7:25 56.66 53.44 88.9
10/10/2004 7:55 60.8 53.4 76.6
10/10/2004 8:25 61.48 52.08 71.2
10/10/2004 8:55 63.54 52.02 66.1
10/10/2004 9:25 64.91 51.8 62.5
10/10/2004 9:55 66.28 51.02 57.9
10/10/2004 10:25 68.33 51.4 54.7
10/10/2004 10:55 69.71 51.36 52.1
10/10/2004 11:25 70.39 50.94 50.1
10/10/2004 11:55 71.77 51.04 48
10/10/2004 12:25 71.77 50.76 47.5
10/10/2004 12:55 72.46 50.76 46.4
10/10/2004 13:25 73.15 44.84 36.3
10/10/2004 13:55 73.84 40.06 29.5
10/10/2004 14:25 73.15 42.98 33.8
10/10/2004 14:55 72.46 29.18 20
10/10/2004 15:25 71.77 30.14 21.3
10/10/2004 15:55 69.71 34.36 27.1
10/10/2004 16:25 67.65 37.78 33.3
10/10/2004 16:55 64.91 40.86 41.3
10/10/2004 17:25 63.54 45.98 52.7
10/10/2004 17:55 62.17 45.44 54.2
10/10/2004 18:25 60.8 45.9 57.9
10/10/2004 18:55 59.42 46.62 62.5
10/10/2004 19:25 58.04 47.4 67.6
10/10/2004 19:55 58.04 47.98 69.1
10/10/2004 20:25 56.66 47.46 71.2
10/10/2004 20:55 55.97 47.48 73.1
10/10/2004 21:25 55.97 48.38 75.6
10/10/2004 21:55 55.28 48.06 76.6
10/10/2004 22:25 54.58 47.52 77
10/10/2004 22:55 54.58 48.04 78.5
10/10/2004 23:25 53.89 47.54 79
10/10/2004 23:55 53.89 48 80.4
10/11/2004 0:25 54.58 48.52 79.9
10/11/2004 0:55 54.58 48.22 79
10/11/2004 1:25 55.28 48.54 78
10/11/2004 1:55 55.97 48.88 77
10/11/2004 2:25 56.66 49.4 76.6
10/11/2004 2:55 56.66 49.4 76.6
10/11/2004 3:25 57.35 50.08 76.6
10/11/2004 3:55 56.66 48.88 75.1
10/11/2004 4:25 56.66 48.88 75.1
10/11/2004 4:55 56.66 49.4 76.6
10/11/2004 5:25 56.66 49.54 77
10/11/2004 5:55 56.66 49.72 77.5
10/11/2004 6:25 56.66 49.72 77.5
10/11/2004 6:55 57.35 49.72 75.6
10/11/2004 7:25 58.73 49.78 72.1
10/11/2004 7:55 60.8 50.02 67.6
10/11/2004 8:25 61.48 49.86 65.6
10/11/2004 8:55 63.54 49.16 59.4
10/11/2004 9:25 64.91 48.76 55.8
10/11/2004 9:55 66.28 48.5 52.7
10/11/2004 10:25 69.02 46.46 44.4
10/11/2004 10:55 71.77 46.38 40.3
10/11/2004 11:25 73.15 45.56 37.3
10/11/2004 11:55 75.22 44.4 33.3
10/11/2004 12:25 77.31 44.26 30.9
10/11/2004 12:55 77.31 45.1 31.9
10/11/2004 13:25 78.71 43.8 29
10/11/2004 13:55 79.41 46.92 31.9
10/11/2004 14:25 78.01 49.5 36.8
10/11/2004 14:55 75.22 49.12 39.8
10/11/2004 15:25 73.84 50.2 43.4
10/11/2004 15:55 72.46 50.46 45.9
10/11/2004 16:25 71.08 50.42 48
10/11/2004 16:55 69.02 50.72 52.1
10/11/2004 17:25 66.96 51.16 56.8
10/11/2004 17:55 64.91 51.38 61.5
10/11/2004 18:25 63.54 51.4 64.6
10/11/2004 18:55 62.17 51.14 67.1
10/11/2004 19:25 61.48 51.66 70.1
10/11/2004 19:55 60.8 51.76 72.1
10/11/2004 20:25 60.11 52.2 75.1
10/11/2004 20:55 59.42 52.22 77
10/11/2004 21:25 58.73 51.72 77.5
10/11/2004 21:55 58.04 51.4 78.5
10/11/2004 22:25 57.35 51.22 79.9
10/11/2004 22:55 57.35 51.68 81.3
10/11/2004 23:25 56.66 51.46 82.7
10/11/2004 23:55 56.66 51.46 82.7
10/12/2004 0:25 55.97 51.08 83.6
10/12/2004 0:55 55.28 49.66 81.3
10/12/2004 1:25 55.28 50.56 84.1
10/12/2004 1:55 54.58 50.16 85
10/12/2004 2:25 53.89 49.9 86.3
10/12/2004 2:55 53.89 49.9 86.3
10/12/2004 3:25 53.19 49.34 86.7
10/12/2004 3:55 53.89 49.48 85
10/12/2004 4:25 53.19 48.92 85.4
10/12/2004 4:55 51.79 47.96 86.7
10/12/2004 5:25 51.79 48.1 87.2
10/12/2004 5:55 51.79 47.84 86.3
10/12/2004 6:25 51.79 47.42 85
10/12/2004 6:55 54.58 49.88 84.1
10/12/2004 7:25 60.11 51.66 73.6
10/12/2004 7:55 62.17 50.92 66.6
10/12/2004 8:25 62.85 50.08 63
10/12/2004 8:55 63.54 50.08 61.5
10/12/2004 9:25 65.59 50.38 57.9
10/12/2004 9:55 66.96 49.64 53.7
10/12/2004 10:25 69.02 49.68 50.1
10/12/2004 10:55 72.46 49.26 43.9
10/12/2004 11:25 73.84 49.52 42.3
10/12/2004 11:55 73.84 48.88 41.3
10/12/2004 12:25 75.22 49.12 39.8
10/12/2004 12:55 77.31 48.14 35.8
10/12/2004 13:25 77.31 49.6 37.8
10/12/2004 13:55 77.31 49.96 38.3
10/12/2004 14:25 75.92 50.74 41.3
10/12/2004 14:55 75.92 50.08 40.3
10/12/2004 15:25 75.22 50.76 42.3
10/12/2004 15:55 71.77 53 51.6
10/12/2004 16:25 69.02 52.82 56.3
10/12/2004 16:55 66.96 52.82 60.4
10/12/2004 17:25 64.91 52.92 65.1
10/12/2004 17:55 63.54 53.24 69.1
10/12/2004 18:25 62.17 52.54 70.7
10/12/2004 18:55 61.48 52.42 72.1
10/12/2004 19:25 61.48 52.6 72.6
10/12/2004 19:55 60.8 52.5 74.1
10/12/2004 20:25 60.11 52.02 74.6
10/12/2004 20:55 60.11 52.38 75.6
10/12/2004 21:25 59.42 52.08 76.6
10/12/2004 21:55 58.73 51.9 78
10/12/2004 22:25 58.73 51.9 78
10/12/2004 22:55 58.73 52.08 78.5
10/12/2004 23:25 58.73 52.38 79.4
10/12/2004 23:55 58.04 51.88 79.9
10/13/2004 0:25 56.66 50.54 79.9
10/13/2004 0:55 55.97 50.34 81.3
10/13/2004 1:25 55.97 50.04 80.4
10/13/2004 1:55 55.28 49.18 79.9
10/13/2004 2:25 55.28 49.66 81.3
10/13/2004 2:55 53.89 48.76 82.7
10/13/2004 3:25 53.89 48.46 81.8
10/13/2004 3:55 53.19 47.46 80.8
10/13/2004 4:25 52.49 46.64 80.4
10/13/2004 4:55 52.49 46.64 80.4
10/13/2004 5:25 51.79 45.8 79.9
10/13/2004 5:55 52.49 46.18 79
10/13/2004 6:25 53.19 46.18 77
10/13/2004 6:55 55.28 47 73.6
10/13/2004 7:25 61.48 49.24 64.1
10/13/2004 7:55 64.22 47.1 53.7
10/13/2004 8:25 66.28 47.68 51.1
10/13/2004 8:55 67.65 50.02 53.2
10/13/2004 9:25 71.77 51.6 49
10/13/2004 9:55 72.46 54.98 54.2
10/13/2004 10:25 75.22 55.04 49.5
10/13/2004 10:55 74.53 55.28 51.1
10/13/2004 11:25 74.53 55.28 51.1
10/13/2004 11:55 78.01 53.96 43.4
10/13/2004 12:25 76.62 53.02 43.9
10/13/2004 12:55 78.01 54.28 43.9
10/13/2004 13:25 79.41 51.82 38.3
10/13/2004 13:55 80.12 51 36.3
10/13/2004 14:25 80.12 52.44 38.3
10/13/2004 14:55 78.01 51.94 40.3
10/13/2004 15:25 79.41 52.86 39.8
10/13/2004 15:55 78.01 48.38 35.3
10/13/2004 16:25 75.22 48.44 38.8
10/13/2004 16:55 72.46 48.66 42.9
10/13/2004 17:25 69.71 48.26 46.4
10/13/2004 17:55 67.65 48.1 49.5
10/13/2004 18:25 66.28 48.2 52.1
10/13/2004 18:55 64.91 47.98 54.2
10/13/2004 19:25 64.22 48.36 56.3
10/13/2004 19:55 62.85 47.32 56.8
10/13/2004 20:25 62.17 47.42 58.4
10/13/2004 20:55 61.48 47.66 60.4
10/13/2004 21:25 60.8 47.5 61.5
10/13/2004 21:55 60.11 47.48 63
10/13/2004 22:25 58.73 46.18 63
10/13/2004 22:55 58.73 46.64 64.1
10/13/2004 23:25 58.04 46.6 65.6
10/13/2004 23:55 57.35 45.74 65.1
10/14/2004 0:25 57.35 46.74 67.6
10/14/2004 0:55 56.66 46.08 67.6
10/14/2004 1:25 55.97 45.62 68.1
10/14/2004 1:55 55.97 45.8 68.6
10/14/2004 2:25 55.28 45.72 70.1
10/14/2004 2:55 55.28 46.3 71.7
10/14/2004 3:25 54.58 45.04 70.1
10/14/2004 3:55 54.58 45.64 71.7
10/14/2004 4:25 53.89 45.12 72.1
10/14/2004 4:55 53.89 44.6 70.7
10/14/2004 5:25 53.89 45.48 73.1
10/14/2004 5:55 53.89 45.3 72.6
10/14/2004 6:25 53.89 45.3 72.6
10/14/2004 6:55 57.35 48.12 71.2
10/14/2004 7:25 64.22 48.6 56.8
10/14/2004 7:55 67.65 47.56 48.5
10/14/2004 8:25 70.39 45.78 41.3
10/14/2004 8:55 73.84 44.72 35.3
10/14/2004 9:25 79.41 40.36 24.8
10/14/2004 9:55 80.82 40.16 23.5
10/14/2004 10:25 81.53 40.18 23
10/14/2004 10:55 82.24 41.78 23.9
10/14/2004 11:25 82.24 40.78 23
10/14/2004 11:55 82.95 39.88 21.7
10/14/2004 12:25 84.38 43.12 23.5
10/14/2004 12:55 85.1 42.72 22.6
10/14/2004 13:25 88.01 41.28 19.5
10/14/2004 13:55 88.01 43.58 21.3
10/14/2004 14:25 87.28 39.6 18.7
10/14/2004 14:55 84.38 41.06 21.7
10/14/2004 15:25 83.67 42.52 23.5
10/14/2004 15:55 82.24 41.34 23.5
10/14/2004 16:25 80.82 37.64 21.3
10/14/2004 16:55 80.12 35.46 20
10/14/2004 17:25 78.71 34.8 20.4
10/14/2004 17:55 77.31 33.16 20
10/14/2004 18:25 73.15 53.14 49.5
10/14/2004 18:55 71.08 54.26 55.3
10/14/2004 19:25 70.39 54.1 56.3
10/14/2004 19:55 69.02 53.3 57.3
10/14/2004 20:25 68.33 53.18 58.4
10/14/2004 20:55 66.96 51.38 57.3
10/14/2004 21:25 66.28 51.72 59.4
10/14/2004 21:55 64.91 47.48 53.2
10/14/2004 22:25 64.91 48.76 55.8
10/14/2004 22:55 63.54 49.16 59.4
10/14/2004 23:25 62.17 47.86 59.4
10/14/2004 23:55 62.85 44.02 50.1
10/15/2004 0:25 62.17 40.82 45.4
10/15/2004 0:55 61.48 46.26 57.3
10/15/2004 1:25 60.8 43.44 52.7
10/15/2004 1:55 60.8 38.42 43.4
10/15/2004 2:25 59.42 35 39.8
10/15/2004 2:55 59.42 33.04 36.8
10/15/2004 3:25 58.73 32.1 36.3
10/15/2004 3:55 58.04 30.44 34.8
10/15/2004 4:25 57.35 30.18 35.3
10/15/2004 4:55 58.04 29.08 32.9
10/15/2004 5:25 56.66 28.16 33.3
10/15/2004 5:55 57.35 26.56 30.4
10/15/2004 6:25 59.42 24.76 26.2
10/15/2004 6:55 60.11 25.8 26.7
10/15/2004 7:25 67.65 26.72 21.3
10/15/2004 7:55 73.15 22.82 15
10/15/2004 8:25 73.15 21.68 14.3
10/15/2004 8:55 78.01 22.7 12.7
10/15/2004 9:25 79.41 21.66 11.6
10/15/2004 9:55 78.71 22.68 12.4
10/15/2004 10:25 80.12 23 12
10/15/2004 10:55 82.95 24.38 11.6
10/15/2004 11:25 82.95 26.56 12.7
10/15/2004 11:55 83.67 33.68 16.6
10/15/2004 12:25 85.83 35.42 16.6
10/15/2004 12:55 85.83 34.18 15.8
10/15/2004 13:25 86.55 37.32 17.5
10/15/2004 13:55 84.38 42.56 23
10/15/2004 14:25 82.24 45.04 27.1
10/15/2004 14:55 82.24 48.52 30.9
10/15/2004 15:25 80.82 45.62 29
10/15/2004 15:55 80.12 41.46 25.3
10/15/2004 16:25 78.71 38.82 23.9
10/15/2004 16:55 77.31 43.84 30.4
10/15/2004 17:25 75.22 49.12 39.8
10/15/2004 17:55 73.84 48.88 41.3
10/15/2004 18:25 72.46 52.22 49
10/15/2004 18:55 71.08 53.7 54.2
10/15/2004 19:25 69.71 52.98 55.3
10/15/2004 19:55 67.65 50.78 54.7
10/15/2004 20:25 67.65 51.78 56.8
10/15/2004 20:55 66.96 50.92 56.3
10/15/2004 21:25 66.28 51.72 59.4
10/15/2004 21:55 65.59 55 68.6
10/15/2004 22:25 64.91 55.18 70.7
10/15/2004 22:55 64.22 54.52 70.7
10/15/2004 23:25 64.22 54.52 70.7
10/15/2004 23:55 63.54 54.96 73.6
10/16/2004 0:25 62.17 55.24 78
10/16/2004 0:55 62.17 55.58 79
10/16/2004 1:25 61.48 55.88 81.8
10/16/2004 1:55 60.8 54.74 80.4
10/16/2004 2:25 59.42 54.32 83.2
10/16/2004 2:55 58.73 54.08 84.5
10/16/2004 3:25 58.04 52.66 82.2
10/16/2004 3:55 57.35 51.52 80.8
10/16/2004 4:25 58.73 53.66 83.2
10/16/2004 4:55 58.73 54.08 84.5
10/16/2004 5:25 57.35 53.58 87.2
10/16/2004 5:55 58.04 55.04 89.7
10/16/2004 6:25 57.35 54.12 88.9
10/16/2004 6:55 58.04 54.66 88.5
10/16/2004 7:25 60.8 56.4 85.4
10/16/2004 7:55 62.17 55.72 79.4
10/16/2004 8:25 62.17 55.9 79.9
10/16/2004 8:55 64.22 55.62 73.6
10/16/2004 9:25 64.91 55.36 71.2
10/16/2004 9:55 66.28 54 64.6
10/16/2004 10:25 69.71 52.98 55.3
10/16/2004 10:55 71.77 53.26 52.1
10/16/2004 11:25 73.84 52.36 47
10/16/2004 11:55 74.53 53.56 48
10/16/2004 12:25 75.22 53.62 47
10/16/2004 12:55 76.62 51.68 41.8
10/16/2004 13:25 75.22 51.46 43.4
10/16/2004 13:55 73.84 50.2 43.4
10/16/2004 14:25 73.84 48.56 40.8
10/16/2004 14:55 73.84 51.12 44.9
10/16/2004 15:25 71.08 50.7 48.5
10/16/2004 15:55 70.39 51.2 50.6
10/16/2004 16:25 69.71 53.94 57.3
10/16/2004 16:55 67.65 54.18 62
10/16/2004 17:25 66.28 54 64.6
10/16/2004 17:55 65.59 53.56 65.1
10/16/2004 18:25 64.91 53.94 67.6
10/16/2004 18:55 63.54 53.44 69.6
10/16/2004 19:25 62.85 53.4 71.2
10/16/2004 19:55 62.17 54.2 75.1
10/16/2004 20:25 60.8 54.24 79
10/16/2004 20:55 60.11 53.9 79.9
10/16/2004 21:25 59.42 53.52 80.8
10/16/2004 21:55 58.73 53.5 82.7
10/16/2004 22:25 58.04 53.7 85.4
10/16/2004 22:55 57.35 53.7 87.6
10/16/2004 23:25 56.66 53.94 90.6
10/16/2004 23:55 55.97 53.14 90.2
10/17/2004 0:25 55.97 53.26 90.6
10/17/2004 0:55 55.28 52.82 91.4
10/17/2004 1:25 54.58 52.36 92.2
10/17/2004 1:55 54.58 52.6 93
10/17/2004 2:25 54.58 52.84 93.8
10/17/2004 2:55 53.89 51.8 92.6
10/17/2004 3:25 53.89 52.02 93.4
10/17/2004 3:55 54.58 52.6 93
10/17/2004 4:25 53.89 51.8 92.6
10/17/2004 4:55 54.58 52.84 93.8
10/17/2004 5:25 54.58 52.72 93.4
10/17/2004 5:55 54.58 53.18 95
10/17/2004 6:25 55.28 53.64 94.2
10/17/2004 6:55 55.97 54.1 93.4
10/17/2004 7:25 58.73 54.78 86.7
10/17/2004 7:55 60.8 55.04 81.3
10/17/2004 8:25 62.17 55.58 79
10/17/2004 8:55 64.91 55.18 70.7
10/17/2004 9:25 65.59 54.8 68.1
10/17/2004 9:55 66.96 53.52 62
10/17/2004 10:25 68.33 51.16 54.2
10/17/2004 10:55 70.39 50.62 49.5
10/17/2004 11:25 71.77 49.54 45.4
10/17/2004 11:55 71.08 49.22 45.9
10/17/2004 12:25 71.77 49.54 45.4
10/17/2004 12:55 72.46 49.26 43.9
10/17/2004 13:25 72.46 49.26 43.9
10/17/2004 13:55 73.15 48.9 42.3
10/17/2004 14:25 71.77 48.64 43.9
10/17/2004 14:55 71.77 49.54 45.4
10/17/2004 15:25 72.46 48.66 42.9
10/17/2004 15:55 71.08 50.42 48
10/17/2004 16:25 69.71 49.72 49
10/17/2004 16:55 68.33 52.18 56.3
10/17/2004 17:25 66.96 52.6 59.9
10/17/2004 17:55 66.28 53.8 64.1
10/17/2004 18:25 64.91 54.74 69.6
10/17/2004 18:55 63.54 54.78 73.1
10/17/2004 19:25 62.85 54.3 73.6
10/17/2004 19:55 62.85 52.58 69.1
10/17/2004 20:25 62.17 53.26 72.6
10/17/2004 20:55 61.48 52.98 73.6
10/17/2004 21:25 60.11 51.66 73.6
10/17/2004 21:55 60.11 52.38 75.6
10/17/2004 22:25 60.11 52.2 75.1
10/17/2004 22:55 59.42 52.56 78
10/17/2004 23:25 58.73 51.9 78
10/17/2004 23:55 57.35 50.22 77
10/18/2004 0:25 56.66 50.7 80.4
10/18/2004 0:55 55.97 50.16 80.8
10/18/2004 1:25 55.97 50.16 80.8
10/18/2004 1:55 55.97 49.86 79.9
10/18/2004 2:25 55.97 50.5 81.8
10/18/2004 2:55 56.66 50.06 78.5
10/18/2004 3:25 57.35 49.36 74.6
10/18/2004 3:55 56.66 49.22 76.1
10/18/2004 4:25 56.66 49.4 76.6
10/18/2004 4:55 57.35 51.38 80.4
10/18/2004 5:25 57.35 52.3 83.2
10/18/2004 5:55 57.35 52.6 84.1
10/18/2004 6:25 57.35 52.72 84.5
10/18/2004 6:55 58.04 52.66 82.2
10/18/2004 7:25 58.73 52.24 79
10/18/2004 7:55 60.11 51.1 72.1
10/18/2004 8:25 61.48 51.26 69.1
10/18/2004 8:55 62.85 50.96 65.1
10/18/2004 9:25 64.22 50.24 60.4
10/18/2004 9:55 66.28 49.26 54.2
10/18/2004 10:25 66.28 49 53.7
10/18/2004 10:55 66.96 48.06 50.6
10/18/2004 11:25 69.02 48.26 47.5
10/18/2004 11:55 70.39 48.58 45.9
10/18/2004 12:25 71.08 48.32 44.4
10/18/2004 12:55 73.15 48.58 41.8
10/18/2004 13:25 72.46 47.96 41.8
10/18/2004 13:55 72.46 49.26 43.9
10/18/2004 14:25 71.08 49.5 46.4
10/18/2004 14:55 69.71 47.68 45.4
10/18/2004 15:25 69.71 47.68 45.4
10/18/2004 15:55 69.02 47.96 47
10/18/2004 16:25 69.02 47.34 45.9
10/18/2004 16:55 67.65 47.82 49
10/18/2004 17:25 66.28 47.42 50.6
10/18/2004 17:55 65.59 51.08 59.4
10/18/2004 18:25 64.22 51.38 63
10/18/2004 18:55 62.85 51.38 66.1
10/18/2004 19:25 62.17 51.92 69.1
10/18/2004 19:55 60.8 51.76 72.1
10/18/2004 20:25 60.11 52.2 75.1
10/18/2004 20:55 59.42 52.08 76.6
10/18/2004 21:25 59.42 52.74 78.5
10/18/2004 21:55 58.04 51.06 77.5
10/18/2004 22:25 56.66 50.7 80.4
10/18/2004 22:55 58.04 52.18 80.8
10/18/2004 23:25 58.04 52.06 80.4
10/18/2004 23:55 57.35 51.84 81.8
10/19/2004 0:25 57.35 51.68 81.3
10/19/2004 0:55 56.66 51.46 82.7
10/19/2004 1:25 56.66 52.22 85
10/19/2004 1:55 55.97 52.06 86.7
10/19/2004 2:25 55.97 52.48 88
10/19/2004 2:55 55.28 52.18 89.3
10/19/2004 3:25 55.97 53.26 90.6
10/19/2004 3:55 55.28 52.06 88.9
10/19/2004 4:25 53.89 51.44 91.4
10/19/2004 4:55 54.58 52.72 93.4
10/19/2004 5:25 53.19 51.1 92.6
10/19/2004 5:55 52.49 50.18 91.8
10/19/2004 6:25 53.19 51.56 94.2
10/19/2004 6:55 53.89 52.48 95
10/19/2004 7:25 55.97 54.44 94.6
10/19/2004 7:55 57.35 54.36 89.7
10/19/2004 8:25 59.42 54.62 84.1
10/19/2004 8:55 60.8 53.4 76.6
10/19/2004 9:25 63.54 53.04 68.6
10/19/2004 9:55 64.22 53.08 67.1
10/19/2004 10:25 64.91 52.24 63.5
10/19/2004 10:55 65.59 52.46 62.5
10/19/2004 11:25 66.28 53.32 63
10/19/2004 11:55 66.28 52.88 62
10/19/2004 12:25 67.65 52.78 58.9
10/19/2004 12:55 69.71 53.22 55.8
10/19/2004 13:25 71.08 53.96 54.7
10/19/2004 13:55 68.33 53.18 58.4
10/19/2004 14:25 69.71 53.46 56.3
10/19/2004 14:55 68.33 53.64 59.4
10/19/2004 15:25 69.02 53.82 58.4
10/19/2004 15:55 68.33 54.1 60.4
10/19/2004 16:25 66.96 54.86 65.1
10/19/2004 16:55 64.91 55.36 71.2
10/19/2004 17:25 63.54 55.52 75.1
10/19/2004 17:55 62.85 55.9 78
10/19/2004 18:25 62.17 56.2 80.8
10/19/2004 18:55 60.8 55.96 84.1
10/19/2004 19:25 60.8 56.4 85.4
10/19/2004 19:55 60.11 56 86.3
10/19/2004 20:25 60.11 56.54 88
10/19/2004 20:55 59.42 56.16 88.9
10/19/2004 21:25 59.42 56.16 88.9
10/19/2004 21:55 58.73 56 90.6
10/19/2004 22:25 58.04 55.44 91
10/19/2004 22:55 57.35 54.88 91.4
10/19/2004 23:25 57.35 55.12 92.2
10/19/2004 23:55 56.66 54.9 93.8
10/20/2004 0:25 56.66 55.14 94.6
10/20/2004 0:55 56.66 55.34 95.3
10/20/2004 1:25 55.97 54.64 95.3
10/20/2004 1:55 56.66 55.46 95.7
10/20/2004 2:25 56.66 55.34 95.3
10/20/2004 2:55 56.66 55.34 95.3
10/20/2004 3:25 56.66 55.34 95.3
10/20/2004 3:55 56.66 55.14 94.6
10/20/2004 4:25 57.35 55.7 94.2
10/20/2004 4:55 57.35 55.94 95
10/20/2004 5:25 57.35 55.46 93.4
10/20/2004 5:55 57.35 55.34 93
10/20/2004 6:25 57.35 55.24 92.6
10/20/2004 6:55 58.04 55.32 90.6
10/20/2004 7:25 58.73 54.94 87.2
10/20/2004 7:55 60.11 55.14 83.6
10/20/2004 8:25 60.8 55.34 82.2
10/20/2004 8:55 62.17 55.9 79.9
10/20/2004 9:25 64.91 56.66 74.6
10/20/2004 9:55 65.59 56.76 73.1
10/20/2004 10:25 66.28 56.68 71.2
10/20/2004 10:55 66.28 56.24 70.1
10/20/2004 11:25 68.33 55.96 64.6
10/20/2004 11:55 66.96 55.9 67.6
10/20/2004 12:25 66.96 56.1 68.1
10/20/2004 12:55 66.28 54.84 66.6
10/20/2004 13:25 66.28 55.24 67.6
10/20/2004 13:55 65.59 55.6 70.1
10/20/2004 14:25 66.28 54 64.6
10/20/2004 14:55 66.28 51.5 58.9
10/20/2004 15:25 65.59 50.38 57.9
10/20/2004 15:55 66.28 51.5 58.9
10/20/2004 16:25 65.59 51.52 60.4
10/20/2004 16:55 63.54 54.06 71.2
10/20/2004 17:25 62.85 55.72 77.5
10/20/2004 17:55 62.17 55.58 79
10/20/2004 18:25 62.17 55.72 79.4
10/20/2004 18:55 62.17 56.84 82.7
10/20/2004 19:25 61.48 57.06 85.4
10/20/2004 19:55 61.48 57.22 85.9
10/20/2004 20:25 61.48 57.06 85.4
10/20/2004 20:55 61.48 57.22 85.9
10/20/2004 21:25 61.48 57.22 85.9
10/20/2004 21:55 61.48 57.06 85.4
10/20/2004 22:25 60.8 56.96 87.2
10/20/2004 22:55 60.8 57.9 90.2
10/20/2004 23:25 60.8 57.38 88.5
10/20/2004 23:55 60.8 56.96 87.2
10/21/2004 0:25 60.8 57.5 88.9
10/21/2004 0:55 60.8 57.5 88.9
10/21/2004 1:25 60.8 57.9 90.2
10/21/2004 1:55 60.8 58.28 91.4
10/21/2004 2:25 60.8 58.64 92.6
10/21/2004 2:55 60.8 57.9 90.2
10/21/2004 3:25 60.8 57.5 88.9
10/21/2004 3:55 60.8 58.16 91
10/21/2004 4:25 60.11 57.6 91.4
10/21/2004 4:55 60.11 57.84 92.2
10/21/2004 5:25 60.11 57.72 91.8
10/21/2004 5:55 60.8 58.28 91.4
10/21/2004 6:25 60.8 58.4 91.8
10/21/2004 6:55 60.8 57.76 89.7
10/21/2004 7:25 60.8 58.16 91
10/21/2004 7:55 60.11 58.44 94.2
10/21/2004 8:25 60.8 59.12 94.2
10/21/2004 8:55 55.97 54.98 96.5
10/21/2004 9:25 55.28 54.3 96.5
10/21/2004 9:55 55.28 54.38 96.8
10/21/2004 10:25 54.58 53.5 96.1
10/21/2004 10:55 53.89 53.12 97.2
10/21/2004 11:25 54.58 53.92 97.6
10/21/2004 11:55 55.28 54.8 98.3
10/21/2004 12:25 54.58 54.12 98.3
10/21/2004 12:55 55.28 55.28 100
10/21/2004 13:25 54.58 54.58 100
10/21/2004 13:55 55.28 55.28 100
10/21/2004 14:25 55.28 55.28 100
10/21/2004 14:55 55.28 55.28 100.3
10/21/2004 15:25 55.97 55.98 100
10/21/2004 15:55 56.66 56.56 99.6
10/21/2004 16:25 56.66 55.76 96.8
10/21/2004 16:55 55.97 55.3 97.6
10/21/2004 17:25 55.28 54.5 97.2
10/21/2004 17:55 55.28 54.5 97.2
10/21/2004 18:25 55.28 54.6 97.6
10/21/2004 18:55 54.58 54 97.9
10/21/2004 19:25 53.89 52.92 96.5
10/21/2004 19:55 53.19 51.88 95.3
10/21/2004 20:25 52.49 51.18 95.3
10/21/2004 20:55 52.49 51.18 95.3
10/21/2004 21:25 51.79 50.6 95.7
10/21/2004 21:55 51.79 50.72 96.1
10/21/2004 22:25 51.79 50.9 96.8
10/21/2004 22:55 50.38 49.62 97.2
10/21/2004 23:25 50.38 49.62 97.2
10/21/2004 23:55 49.67 49.1 97.9
10/22/2004 0:25 49.67 49.1 97.9
10/22/2004 0:55 48.96 48.86 99.6
10/22/2004 1:25 48.96 48.96 100
10/22/2004 1:55 48.96 48.96 100.3
10/22/2004 2:25 48.96 48.96 100.3
10/22/2004 2:55 47.53 47.54 100.3
10/22/2004 3:25 47.53 47.54 100.3
10/22/2004 3:55 46.82 46.82 100.3
10/22/2004 4:25 46.82 46.82 100.3
10/22/2004 4:55 46.82 46.82 100
10/22/2004 5:25 48.25 45.02 88.5
10/22/2004 5:55 46.1 44.52 94.2
10/22/2004 6:25 46.82 44.8 92.6
10/22/2004 6:55 47.53 45.62 93
10/22/2004 7:25 51.08 48.16 89.7
10/22/2004 7:55 53.89 43.62 68.1
10/22/2004 8:25 55.97 44.64 65.6
10/22/2004 8:55 58.04 46.4 65.1
10/22/2004 9:25 58.73 49.26 70.7
10/22/2004 9:55 60.8 48.34 63.5
10/22/2004 10:25 63.54 50.3 62
10/22/2004 10:55 64.91 49.46 57.3
10/22/2004 11:25 66.28 50.52 56.8
10/22/2004 11:55 66.28 49.26 54.2
10/22/2004 12:25 67.65 49.78 52.7
10/22/2004 12:55 67.65 49.78 52.7
10/22/2004 13:25 66.96 48.32 51.1
10/22/2004 13:55 66.96 47.78 50.1
10/22/2004 14:25 66.96 46.66 48
10/22/2004 14:55 66.28 46.3 48.5
10/22/2004 15:25 66.28 44.56 45.4
10/22/2004 15:55 64.91 45.58 49.5
10/22/2004 16:25 64.22 46.04 51.6
10/22/2004 16:55 62.85 49.66 62
10/22/2004 17:25 60.8 49.02 65.1
10/22/2004 17:55 60.11 49.56 68.1
10/22/2004 18:25 59.42 50.82 73.1
10/22/2004 18:55 58.73 51.06 75.6
10/22/2004 19:25 58.04 50.04 74.6
10/22/2004 19:55 58.04 50.22 75.1
10/22/2004 20:25 56.66 50.06 78.5
10/22/2004 20:55 56.66 49.4 76.6
10/22/2004 21:25 55.28 49.82 81.8
10/22/2004 21:55 54.58 50.16 85
10/22/2004 22:25 53.19 50 88.9
10/22/2004 22:55 52.49 49.2 88.5
10/22/2004 23:25 54.58 49.28 82.2
10/22/2004 23:55 55.28 48.88 79
10/23/2004 0:25 55.97 47.68 73.6
10/23/2004 0:55 56.66 46.86 69.6
10/23/2004 1:25 56.66 45.88 67.1
10/23/2004 1:55 55.97 45.62 68.1
10/23/2004 2:25 55.97 44.64 65.6
10/23/2004 2:55 55.97 46.18 69.6
10/23/2004 3:25 55.28 46.82 73.1
10/23/2004 3:55 55.28 47.72 75.6
10/23/2004 4:25 55.97 49.22 78
10/23/2004 4:55 55.97 49.86 79.9
10/23/2004 5:25 55.28 49.48 80.8
10/23/2004 5:55 55.28 49.66 81.3
10/23/2004 6:25 55.28 49.48 80.8
10/23/2004 6:55 55.97 49.4 78.5
10/23/2004 7:25 58.04 49.66 73.6
10/23/2004 7:55 60.8 49.62 66.6
10/23/2004 8:25 61.48 49.46 64.6
10/23/2004 8:55 62.85 49.66 62
10/23/2004 9:25 64.22 48.82 57.3
10/23/2004 9:55 65.59 48.62 54.2
10/23/2004 10:25 66.28 47.94 51.6
10/23/2004 10:55 67.65 46.1 45.9
10/23/2004 11:25 68.33 46.42 45.4
10/23/2004 11:55 69.71 46.48 43.4
10/23/2004 12:25 71.08 46.72 41.8
10/23/2004 12:55 73.15 44.84 36.3
10/23/2004 13:25 74.53 46.42 36.8
10/23/2004 13:55 75.92 45.4 33.8
10/23/2004 14:25 75.92 43.06 30.9
10/23/2004 14:55 75.22 43.28 31.9
10/23/2004 15:25 75.22 42.46 30.9
10/23/2004 15:55 74.53 44.58 34.3
10/23/2004 16:25 71.77 50.48 47
10/23/2004 16:55 68.33 51.16 54.2
10/23/2004 17:25 66.28 52.66 61.5
10/23/2004 17:55 64.22 52.26 65.1
10/23/2004 18:25 63.54 52.64 67.6
10/23/2004 18:55 62.85 52.78 69.6
10/23/2004 19:25 62.85 52.98 70.1
10/23/2004 19:55 62.17 52.92 71.7
10/23/2004 20:25 61.48 53.16 74.1
10/23/2004 20:55 60.8 53.04 75.6
10/23/2004 21:25 60.8 53.04 75.6
10/23/2004 21:55 60.8 53.4 76.6
10/23/2004 22:25 60.11 53.4 78.5
10/23/2004 22:55 58.73 52.86 80.8
10/23/2004 23:25 58.04 53.12 83.6
10/23/2004 23:55 57.35 53.02 85.4
10/24/2004 0:25 56.66 52.74 86.7
10/24/2004 0:55 55.97 52.62 88.5
10/24/2004 1:25 55.28 52.46 90.2
10/24/2004 1:55 55.28 52.58 90.6
10/24/2004 2:25 55.28 51.94 88.5
10/24/2004 2:55 54.58 51.9 90.6
10/24/2004 3:25 53.89 51.56 91.8
10/24/2004 3:55 53.89 51.68 92.2
10/24/2004 4:25 53.19 51.22 93
10/24/2004 4:55 53.19 51.22 93
10/24/2004 5:25 53.19 51.34 93.4
10/24/2004 5:55 52.49 50.76 93.8
10/24/2004 6:25 52.49 50.64 93.4
10/24/2004 6:55 53.89 51.56 91.8
10/24/2004 7:25 58.04 53.4 84.5
10/24/2004 7:55 62.17 52.32 70.1
10/24/2004 8:25 64.22 48.82 57.3
10/24/2004 8:55 65.59 46.8 50.6
10/24/2004 9:25 66.96 46.1 47
10/24/2004 9:55 68.33 47.62 47.5
10/24/2004 10:25 70.39 45.78 41.3
10/24/2004 10:55 71.08 46.4 41.3
10/24/2004 11:25 72.46 45.98 38.8
10/24/2004 11:55 73.15 44.12 35.3
10/24/2004 12:25 74.53 45.32 35.3
10/24/2004 12:55 75.92 46.18 34.8
10/24/2004 13:25 75.92 46.92 35.8
10/24/2004 13:55 75.22 46.32 35.8
10/24/2004 14:25 75.22 45.56 34.8
10/24/2004 14:55 74.53 46.78 37.3
10/24/2004 15:25 73.15 46.6 38.8
10/24/2004 15:55 71.77 44.68 37.8
10/24/2004 16:25 70.39 45.46 40.8
10/24/2004 16:55 69.02 47.62 46.4
10/24/2004 17:25 66.96 47.46 49.5
10/24/2004 17:55 64.91 46.68 51.6
10/24/2004 18:25 63.54 46.46 53.7
10/24/2004 18:55 62.85 46.84 55.8
10/24/2004 19:25 61.48 46.54 57.9
10/24/2004 19:55 60.8 46.58 59.4
10/24/2004 20:25 60.11 48.16 64.6
10/24/2004 20:55 59.42 47.92 65.6
10/24/2004 21:25 58.73 49.02 70.1
10/24/2004 21:55 58.04 48.36 70.1
10/24/2004 22:25 57.35 49.36 74.6
10/24/2004 22:55 56.66 49.4 76.6
10/24/2004 23:25 55.97 49.22 78
10/24/2004 23:55 55.28 47.88 76.1
10/25/2004 0:25 54.58 47.88 78
10/25/2004 0:55 54.58 47.52 77
10/25/2004 1:25 53.89 46.86 77
10/25/2004 1:55 53.89 45.66 73.6
10/25/2004 2:25 52.49 45.84 78
10/25/2004 2:55 52.49 46.3 79.4
10/25/2004 3:25 51.79 45.96 80.4
10/25/2004 3:55 51.08 46.18 83.2
10/25/2004 4:25 50.38 46.04 85
10/25/2004 4:55 49.67 45.64 85.9
10/25/2004 5:25 49.67 46.14 87.6
10/25/2004 5:55 49.67 46.26 88
10/25/2004 6:25 49.67 46.66 89.3
10/25/2004 6:55 50.38 47.74 90.6
10/25/2004 7:25 53.89 50.7 88.9
10/25/2004 7:55 55.28 51.26 86.3
10/25/2004 8:25 56.66 51 81.3
10/25/2004 8:55 58.04 50.56 76.1
10/25/2004 9:25 60.8 49.02 65.1
10/25/2004 9:55 62.85 48.96 60.4
10/25/2004 10:25 64.22 46.6 52.7
10/25/2004 10:55 67.65 44.62 43.4
10/25/2004 11:25 69.02 39.36 33.8
10/25/2004 11:55 71.08 33.82 25.3
10/25/2004 12:25 72.46 38 28.5
10/25/2004 12:55 73.15 36.46 26.2
10/25/2004 13:25 74.53 37.14 25.7
10/25/2004 13:55 74.53 42.28 31.4
10/25/2004 14:25 74.53 43.48 32.9
10/25/2004 14:55 73.84 45.08 35.8
10/25/2004 15:25 73.15 46.94 39.3
10/25/2004 15:55 71.77 48.34 43.4
10/25/2004 16:25 70.39 48.88 46.4
10/25/2004 16:55 67.65 50.02 53.2
10/25/2004 17:25 64.91 50.66 59.9
10/25/2004 17:55 62.85 51.98 67.6
10/25/2004 18:25 60.8 52.14 73.1
10/25/2004 18:55 59.42 52.08 76.6
10/25/2004 19:25 58.04 51.88 79.9
10/25/2004 19:55 57.35 51.98 82.2
10/25/2004 20:25 56.66 51.76 83.6
10/25/2004 20:55 55.97 51.08 83.6
10/25/2004 21:25 55.28 50.7 84.5
10/25/2004 21:55 55.28 50.98 85.4
10/25/2004 22:25 54.58 50.3 85.4
10/25/2004 22:55 54.58 50.02 84.5
10/25/2004 23:25 53.19 49.6 87.6
10/25/2004 23:55 53.19 49.74 88
10/26/2004 0:25 52.49 49.32 88.9
10/26/2004 0:55 51.79 48.86 89.7
10/26/2004 1:25 51.79 49.12 90.6
10/26/2004 1:55 51.79 49.24 91
10/26/2004 2:25 51.79 49.24 91
10/26/2004 2:55 51.08 48.78 91.8
10/26/2004 3:25 51.08 49.14 93
10/26/2004 3:55 51.79 49.84 93
10/26/2004 4:25 52.49 49.82 90.6
10/26/2004 4:55 51.08 48.44 90.6
10/26/2004 5:25 50.38 48.32 92.6
10/26/2004 5:55 49.67 47.74 93
10/26/2004 6:25 50.38 48.78 94.2
10/26/2004 6:55 50.38 48.78 94.2
10/26/2004 7:25 51.08 49.48 94.2
10/26/2004 7:55 53.89 49.76 85.9
10/26/2004 8:25 55.28 48.72 78.5
10/26/2004 8:55 57.35 47.52 69.6
10/26/2004 9:25 59.42 47.04 63.5
10/26/2004 9:55 60.11 46.38 60.4
10/26/2004 10:25 61.48 46.26 57.3
10/26/2004 10:55 62.85 45.04 52.1
10/26/2004 11:25 63.54 44.9 50.6
10/26/2004 11:55 64.22 45.8 51.1
10/26/2004 12:25 64.91 46.16 50.6
10/26/2004 12:55 65.59 45.94 49
10/26/2004 13:25 66.28 46.56 49
10/26/2004 13:55 66.28 45.48 47
10/26/2004 14:25 65.59 46.22 49.5
10/26/2004 14:55 65.59 46.52 50.1
10/26/2004 15:25 64.22 46.3 52.1
10/26/2004 15:55 63.54 46.22 53.2
10/26/2004 16:25 61.48 45.8 56.3
10/26/2004 16:55 60.11 46.16 59.9
10/26/2004 17:25 58.73 45.98 62.5
10/26/2004 17:55 58.04 44.9 61.5
10/26/2004 18:25 57.35 44.68 62.5
10/26/2004 18:55 57.35 45.94 65.6
10/26/2004 19:25 56.66 46.28 68.1
10/26/2004 19:55 55.28 46.3 71.7
10/26/2004 20:25 53.89 46.54 76.1
10/26/2004 20:55 53.19 46.68 78.5
10/26/2004 21:25 53.19 47.46 80.8
10/26/2004 21:55 52.49 47.54 83.2
10/26/2004 22:25 51.79 47.28 84.5
10/26/2004 22:55 51.08 46.86 85.4
10/26/2004 23:25 51.08 46.74 85
10/26/2004 23:55 51.79 47.28 84.5
10/27/2004 0:25 51.79 47.14 84.1
10/27/2004 0:55 52.49 47.68 83.6
10/27/2004 1:25 52.49 47.96 84.5
10/27/2004 1:55 52.49 48.24 85.4
10/27/2004 2:25 52.49 48.24 85.4
10/27/2004 2:55 53.19 48.64 84.5
10/27/2004 3:25 53.89 49.32 84.5
10/27/2004 3:55 53.89 48.92 83.2
10/27/2004 4:25 54.58 50.46 85.9
10/27/2004 4:55 53.19 50.64 91
10/27/2004 5:25 53.89 51.32 91
10/27/2004 5:55 53.19 52.22 96.5
10/27/2004 6:25 53.19 53 99.3
10/27/2004 6:55 53.89 53.78 99.6
10/27/2004 7:25 54.58 53.6 96.5
10/27/2004 7:55 55.97 52.34 87.6
10/27/2004 8:25 57.35 52.44 83.6
10/27/2004 8:55 58.73 50.52 74.1
10/27/2004 9:25 59.42 48.52 67.1
10/27/2004 9:55 60.11 48.36 65.1
10/27/2004 10:25 60.11 49.16 67.1
10/27/2004 10:55 58.04 52.98 83.2
10/27/2004 11:25 60.11 52.56 76.1
10/27/2004 11:55 60.11 51.84 74.1
10/27/2004 12:25 61.48 50.48 67.1
10/27/2004 12:55 61.48 48.78 63
10/27/2004 13:25 62.85 49.22 61
10/27/2004 13:55 62.17 49.22 62.5
10/27/2004 14:25 62.17 49.44 63
10/27/2004 14:55 61.48 49 63.5
10/27/2004 15:25 60.8 50.42 68.6
10/27/2004 15:55 60.11 50.76 71.2
10/27/2004 16:25 60.11 52.02 74.6
10/27/2004 16:55 59.42 52.22 77
10/27/2004 17:25 59.42 53.52 80.8
10/27/2004 17:55 58.73 53.66 83.2
10/27/2004 18:25 57.35 55.34 93
10/27/2004 18:55 57.35 55.24 92.6
10/27/2004 19:25 58.04 55.2 90.2
10/27/2004 19:55 58.04 55.04 89.7
10/27/2004 20:25 58.04 55.92 92.6
10/27/2004 20:55 56.66 55.76 96.8
10/27/2004 21:25 56.66 56.66 100
10/27/2004 21:55 56.66 56.66 100
10/27/2004 22:25 56.66 56.66 100
10/27/2004 22:55 56.66 56.66 100
10/27/2004 23:25 56.66 56.66 100.3
10/27/2004 23:55 57.35 57.36 100.3
10/28/2004 0:25 57.35 57.36 100.6
10/28/2004 0:55 57.35 57.36 100.6
10/28/2004 1:25 57.35 57.36 100.6
10/28/2004 1:55 57.35 57.36 101
10/28/2004 2:25 57.35 57.36 101
10/28/2004 2:55 55.28 55.28 101.3
10/28/2004 3:25 55.28 55.28 101.3
10/28/2004 3:55 54.58 54.58 101.3
10/28/2004 4:25 54.58 54.58 101.6
10/28/2004 4:55 54.58 54.58 101.6
10/28/2004 5:25 53.89 53.88 101.6
10/28/2004 5:55 53.89 53.88 101.6
10/28/2004 6:25 53.89 53.88 101.3
10/28/2004 6:55 53.89 53.88 101.6
10/28/2004 7:25 53.89 53.88 101.6
10/28/2004 7:55 53.89 53.88 101.6
10/28/2004 8:25 53.89 53.88 101
10/28/2004 8:55 55.28 55.28 100
10/28/2004 9:25 55.97 55.18 97.2
10/28/2004 9:55 57.35 55.82 94.6
10/28/2004 10:25 57.35 53.3 86.3
10/28/2004 10:55 59.42 52.92 79
10/28/2004 11:25 60.8 50.8 69.6
10/28/2004 11:55 60.8 49.82 67.1
10/28/2004 12:25 62.85 46.84 55.8
10/28/2004 12:55 64.22 44.68 49
10/28/2004 13:25 64.22 45.26 50.1
10/28/2004 13:55 64.22 40.86 42.3
10/28/2004 14:25 64.22 42.4 44.9
10/28/2004 14:55 64.91 43.88 46.4
10/28/2004 15:25 64.22 43.88 47.5
10/28/2004 15:55 63.54 43.8 48.5
10/28/2004 16:25 62.17 44.7 52.7
10/28/2004 16:55 60.8 45.62 57.3
10/28/2004 17:25 59.42 46.42 62
10/28/2004 17:55 58.04 46.6 65.6
10/28/2004 18:25 57.35 47.32 69.1
10/28/2004 18:55 56.66 48.16 73.1
10/28/2004 19:25 55.28 48.54 78
10/28/2004 19:55 54.58 48.98 81.3
10/28/2004 20:25 53.19 49.08 85.9
10/28/2004 20:55 52.49 49.32 88.9
10/28/2004 21:25 51.79 49.02 90.2
10/28/2004 21:55 51.79 48.24 87.6
10/28/2004 22:25 51.08 48.56 91
10/28/2004 22:55 50.38 48.2 92.2
10/28/2004 23:25 51.08 48.9 92.2
10/28/2004 23:55 50.38 48.32 92.6
10/29/2004 0:25 49.67 47.96 93.8
10/29/2004 0:55 48.96 47.36 94.2
10/29/2004 1:25 48.25 46.88 95
10/29/2004 1:55 48.25 46.96 95.3
10/29/2004 2:25 48.25 46.96 95.3
10/29/2004 2:55 48.25 47.2 96.1
10/29/2004 3:25 47.53 46.26 95.3
10/29/2004 3:55 47.53 46.48 96.1
10/29/2004 4:25 46.82 45.88 96.5
10/29/2004 4:55 46.82 45.88 96.5
10/29/2004 5:25 46.1 45.16 96.5
10/29/2004 5:55 46.1 45.24 96.8
10/29/2004 6:25 46.1 45.24 96.8
10/29/2004 6:55 47.53 46.9 97.6
10/29/2004 7:25 53.19 52.62 97.9
10/29/2004 7:55 57.35 51.04 79.4
10/29/2004 8:25 59.42 50.44 72.1
10/29/2004 8:55 59.42 49.68 70.1
10/29/2004 9:25 60.8 49.22 65.6
10/29/2004 9:55 61.48 48.14 61.5
10/29/2004 10:25 61.48 48.36 62
10/29/2004 10:55 63.54 49.16 59.4
10/29/2004 11:25 63.54 48.18 57.3
10/29/2004 11:55 62.17 49.64 63.5
10/29/2004 12:25 62.85 48.74 59.9
10/29/2004 12:55 64.22 46.6 52.7
10/29/2004 13:25 64.22 45.26 50.1
10/29/2004 13:55 64.22 45.54 50.6
10/29/2004 14:25 63.54 44.06 49
10/29/2004 14:55 62.85 44.78 51.6
10/29/2004 15:25 62.85 45.34 52.7
10/29/2004 15:55 62.85 46.84 55.8
10/29/2004 16:25 61.48 46.78 58.4
10/29/2004 16:55 59.42 46.42 62
10/29/2004 17:25 58.04 46.4 65.1
10/29/2004 17:55 58.04 46.8 66.1
10/29/2004 18:25 57.35 47.52 69.6
10/29/2004 18:55 57.35 45.74 65.1
10/29/2004 19:25 57.35 45.34 64.1
10/29/2004 19:55 57.35 45.74 65.1
10/29/2004 20:25 57.35 45.74 65.1
10/29/2004 20:55 56.66 44.22 63
10/29/2004 21:25 55.97 43.78 63.5
10/29/2004 21:55 55.97 43.16 62
10/29/2004 22:25 55.28 43.78 65.1
10/29/2004 22:55 53.89 44.2 69.6
10/29/2004 23:25 52.49 44.5 74.1
10/29/2004 23:55 54.58 44.1 67.6
10/30/2004 0:25 55.28 43.78 65.1
10/30/2004 0:55 55.28 44.36 66.6
10/30/2004 1:25 53.89 44.6 70.7
10/30/2004 1:55 53.19 45.16 74.1
10/30/2004 2:25 54.58 44.48 68.6
10/30/2004 2:55 55.28 44.76 67.6
10/30/2004 3:25 55.28 45.52 69.6
10/30/2004 3:55 55.28 45.14 68.6
10/30/2004 4:25 55.28 42.72 62.5
10/30/2004 4:55 54.58 42.46 63.5
10/30/2004 5:25 53.89 42.46 65.1
10/30/2004 5:55 52.49 42.66 69.1
10/30/2004 6:25 52.49 41.9 67.1
10/30/2004 6:55 53.89 42.06 64.1
10/30/2004 7:25 55.97 42.26 59.9
10/30/2004 7:55 57.35 43.12 58.9
10/30/2004 8:25 58.73 41.52 52.7
10/30/2004 8:55 59.42 40.02 48.5
10/30/2004 9:25 60.8 38.72 43.9
10/30/2004 9:55 61.48 39.34 43.9
10/30/2004 10:25 63.54 38.36 39.3
10/30/2004 10:55 63.54 36 35.8
10/30/2004 11:25 65.59 32.96 29.5
10/30/2004 11:55 65.59 33.38 30
10/30/2004 12:25 66.96 33.7 29
10/30/2004 12:55 66.96 36.88 32.9
10/30/2004 13:25 67.65 37.78 33.3
10/30/2004 13:55 67.65 38.54 34.3
10/30/2004 14:25 67.65 37.78 33.3
10/30/2004 14:55 66.28 39.12 36.8
10/30/2004 15:25 66.28 38.42 35.8
10/30/2004 15:55 65.59 37.46 35.3
10/30/2004 16:25 64.91 39.58 39.3
10/30/2004 16:55 62.85 40.58 43.9
10/30/2004 17:25 60.8 41.28 48.5
10/30/2004 17:55 60.11 42 51.1
10/30/2004 18:25 59.42 42.16 52.7
10/30/2004 18:55 58.73 41.76 53.2
10/30/2004 19:25 58.04 41.12 53.2
10/30/2004 19:55 57.35 41.48 55.3
10/30/2004 20:25 55.97 42.48 60.4
10/30/2004 20:55 54.58 44.68 69.1
10/30/2004 21:25 53.19 44.98 73.6
10/30/2004 21:55 53.19 45.7 75.6
10/30/2004 22:25 52.49 46 78.5
10/30/2004 22:55 51.79 45.62 79.4
10/30/2004 23:25 51.08 45.56 81.3
10/30/2004 23:55 51.08 45.86 82.2
10/31/2004 0:25 50.38 45.76 84.1
10/31/2004 0:55 49.67 45.08 84.1
10/31/2004 1:25 49.67 45.64 85.9
10/31/2004 1:55 48.96 45.72 88.5
10/31/2004 2:25 48.25 44.48 86.7
10/31/2004 2:55 48.25 44.74 87.6
10/31/2004 3:25 47.53 44.54 89.3
10/31/2004 3:55 47.53 44.82 90.2
10/31/2004 4:25 47.53 45.04 91
10/31/2004 4:55 46.82 44.44 91.4
10/31/2004 5:25 47.53 44.82 90.2
10/31/2004 5:55 46.82 44.34 91
10/31/2004 6:25 47.53 44.82 90.2
10/31/2004 6:55 48.25 45.64 90.6
10/31/2004 7:25 50.38 46.44 86.3
10/31/2004 7:55 55.28 48.2 77
10/31/2004 8:25 58.73 45.34 61
10/31/2004 8:55 60.8 43.68 53.2
10/31/2004 9:25 62.17 44.16 51.6
10/31/2004 9:55 64.22 43.88 47.5
10/31/2004 10:25 66.28 41.78 40.8
10/31/2004 10:55 68.33 32.36 26.2
10/31/2004 11:25 69.02 36.34 30
10/31/2004 11:55 70.39 37.1 29.5
10/31/2004 12:25 71.77 33.5 24.4
10/31/2004 12:55 72.46 32.18 22.6
10/31/2004 13:25 72.46 34.08 24.4
10/31/2004 13:55 72.46 35.38 25.7
10/31/2004 14:25 73.15 36.46 26.2
10/31/2004 14:55 72.46 39.3 30
10/31/2004 15:25 71.77 39.88 31.4
10/31/2004 15:55 70.39 39.88 32.9
10/31/2004 16:25 69.71 41.08 35.3
10/31/2004 16:55 66.96 42.7 41.3
10/31/2004 17:25 64.91 45.04 48.5
10/31/2004 17:55 62.85 47.08 56.3
10/31/2004 18:25 61.48 52.8 73.1
10/31/2004 18:55 60.11 52.56 76.1
10/31/2004 19:25 59.42 51.36 74.6
10/31/2004 19:55 59.42 52.92 79
10/31/2004 20:25 58.04 52.52 81.8
10/31/2004 20:55 56.66 51.92 84.1
10/31/2004 21:25 56.66 47.46 71.2
10/31/2004 21:55 55.97 48.56 76.1
10/31/2004 22:25 55.28 47.54 75.1
10/31/2004 22:55 54.58 45.04 70.1
10/31/2004 23:25 59.42 37.18 43.4
10/31/2004 23:55 61.48 34.54 36.3